Time;durP1;ratioP1;P1;durP2;ratioP2;P2;SDS_P1;SDS_P2;PMS_P1;PMS_P2;Temp;Humidity;BMP_temperature;BMP_pressure;BME280_temperature;BME280_humidity;BME280_pressure;Samples;Min_cycle;Max_cycle;Signal;HPM_P1;HPM_P2
2024/01/09 00:00:05;;;;;;;14.13;13.43;;;-1.90;99.90;;;;;;5124654;27;20213;-65
2024/01/09 00:02:33;;;;;;;12.95;12.35;;;-1.90;99.90;;;;;;5126633;27;20308;-66
2024/01/09 00:05:00;;;;;;;12.80;12.20;;;-1.90;99.90;;;;;;5126916;27;20217;-65
2024/01/09 00:07:27;;;;;;;12.25;11.70;;;-1.80;99.90;;;;;;5122045;27;20275;-65
2024/01/09 00:09:53;;;;;;;12.95;12.35;;;-1.80;99.90;;;;;;5124609;27;20575;-65
2024/01/09 00:12:20;;;;;;;13.15;12.52;;;-1.90;99.90;;;;;;5125825;27;20229;-66
2024/01/09 00:14:48;;;;;;;12.70;12.10;;;-2.00;99.90;;;;;;5126628;27;20202;-66
2024/01/09 00:17:15;;;;;;;13.07;12.38;;;-2.00;99.90;;;;;;5124860;27;20217;-65
2024/01/09 00:19:43;;;;;;;13.40;12.75;;;-2.00;99.90;;;;;;5124104;27;20218;-66
2024/01/09 00:22:09;;;;;;;13.77;13.07;;;-1.90;99.90;;;;;;5126909;27;20560;-65
2024/01/09 00:24:36;;;;;;;14.43;13.70;;;-2.00;99.90;;;;;;5123406;27;20691;-65
2024/01/09 00:27:03;;;;;;;13.85;13.05;;;-2.00;99.90;;;;;;5125388;27;20214;-65
2024/01/09 00:29:30;;;;;;;15.07;14.27;;;-2.10;99.90;;;;;;5123590;27;20230;-65
2024/01/09 00:31:56;;;;;;;14.95;14.15;;;-2.10;99.90;;;;;;5126663;27;20208;-65
2024/01/09 00:34:23;;;;;;;13.95;13.35;;;-2.20;99.90;;;;;;5118174;27;20688;-65
2024/01/09 00:36:51;;;;;;;14.00;13.30;;;-2.20;99.90;;;;;;5126633;27;20208;-65
2024/01/09 00:39:18;;;;;;;14.18;13.48;;;-2.30;99.90;;;;;;5125050;27;20201;-64
2024/01/09 00:41:47;;;;;;;14.57;13.85;;;-2.30;99.90;;;;;;5124530;27;20209;-65
2024/01/09 00:44:14;;;;;;;14.52;13.82;;;-2.30;99.90;;;;;;5125144;27;20668;-70
2024/01/09 00:46:40;;;;;;;14.43;13.63;;;-2.20;99.90;;;;;;5122803;27;20209;-64
2024/01/09 00:49:07;;;;;;;13.93;13.23;;;-2.20;99.90;;;;;;5126528;27;20236;-65
2024/01/09 00:51:34;;;;;;;13.32;12.73;;;-2.10;99.90;;;;;;5124014;27;20194;-66
2024/01/09 00:54:02;;;;;;;14.32;13.52;;;-2.20;99.90;;;;;;5128555;27;20227;-65
2024/01/09 00:56:28;;;;;;;13.73;13.13;;;-2.30;99.90;;;;;;5124652;27;20206;-66
2024/01/09 00:58:55;;;;;;;13.95;13.25;;;-2.30;99.90;;;;;;5124546;27;20198;-66
2024/01/09 01:01:22;;;;;;;14.23;13.52;;;-2.20;99.90;;;;;;5120582;27;20206;-65
2024/01/09 01:03:49;;;;;;;13.63;13.02;;;-2.10;99.90;;;;;;5123811;27;20698;-65
2024/01/09 01:06:15;;;;;;;14.45;13.73;;;-2.10;99.90;;;;;;5125677;27;20224;-65
2024/01/09 01:08:42;;;;;;;13.45;12.77;;;-2.10;99.90;;;;;;5122481;27;20222;-66
2024/01/09 01:11:10;;;;;;;13.20;12.50;;;-2.10;99.90;;;;;;5127951;27;20598;-65
2024/01/09 01:13:37;;;;;;;13.77;13.07;;;-2.00;99.90;;;;;;5123699;27;20260;-67
2024/01/09 01:16:04;;;;;;;13.50;12.80;;;-2.00;99.90;;;;;;5129021;27;20216;-66
2024/01/09 01:18:30;;;;;;;13.98;13.27;;;-2.00;99.90;;;;;;5121922;27;20237;-66
2024/01/09 01:20:57;;;;;;;13.20;12.60;;;-2.00;99.90;;;;;;5125697;27;20579;-64
2024/01/09 01:23:24;;;;;;;12.98;12.38;;;-2.00;99.90;;;;;;5119856;27;20238;-64
2024/01/09 01:25:50;;;;;;;14.75;13.85;;;-2.00;99.90;;;;;;5124632;27;20208;-65
2024/01/09 01:28:18;;;;;;;13.60;13.00;;;-2.20;99.90;;;;;;5124705;27;21038;-66
2024/01/09 01:30:45;;;;;;;12.75;12.15;;;-2.20;99.90;;;;;;5122871;27;20210;-66
2024/01/09 01:33:12;;;;;;;13.63;12.93;;;-2.10;99.90;;;;;;5125595;27;20220;-65
2024/01/09 01:35:38;;;;;;;13.40;12.80;;;-2.10;99.90;;;;;;5125292;27;20262;-65
2024/01/09 01:38:05;;;;;;;14.25;13.55;;;-2.00;99.90;;;;;;5126967;27;20197;-65
2024/01/09 01:40:32;;;;;;;13.55;12.85;;;-2.20;99.90;;;;;;5123206;27;20221;-66
2024/01/09 01:42:59;;;;;;;13.20;12.60;;;-2.20;99.90;;;;;;5124331;27;20222;-66
2024/01/09 01:45:27;;;;;;;13.25;12.63;;;-2.20;99.90;;;;;;5125204;27;20210;-66
2024/01/09 01:47:55;;;;;;;13.57;12.85;;;-2.10;99.90;;;;;;5125814;27;20209;-66
2024/01/09 01:50:22;;;;;;;14.57;13.88;;;-2.10;99.90;;;;;;5124944;27;20294;-66
2024/01/09 01:52:49;;;;;;;15.13;14.25;;;-2.30;99.90;;;;;;5125242;27;20230;-64
2024/01/09 01:55:20;;;;;;;14.95;14.15;;;-2.30;99.90;;;;;;5128132;27;20212;-66
2024/01/09 01:57:50;;;;;;;15.38;14.60;;;-2.40;99.90;;;;;;5121572;27;20202;-66
2024/01/09 02:00:18;;;;;;;14.95;14.25;;;-2.40;99.90;;;;;;5123173;27;20212;-66
2024/01/09 02:02:48;;;;;;;14.07;13.48;;;-2.30;99.90;;;;;;5131501;27;20221;-67
2024/01/09 02:05:16;;;;;;;14.80;14.10;;;-2.30;99.90;;;;;;5121259;27;20198;-65
2024/01/09 02:07:46;;;;;;;14.95;14.25;;;-2.30;99.90;;;;;;5118629;28;20209;-66
2024/01/09 02:10:13;;;;;;;14.43;13.73;;;-2.30;99.90;;;;;;5118011;28;20223;-65
2024/01/09 02:12:40;;;;;;;14.68;13.98;;;-2.30;99.90;;;;;;5119831;28;20217;-66
2024/01/09 02:15:08;;;;;;;15.75;14.95;;;-2.30;99.90;;;;;;5119931;28;20648;-67
2024/01/09 02:17:35;;;;;;;16.40;15.60;;;-2.50;99.90;;;;;;5121753;27;20217;-66
2024/01/09 02:20:03;;;;;;;16.83;16.10;;;-2.60;99.90;;;;;;5112463;28;20198;-66
2024/01/09 02:22:30;;;;;;;17.48;16.67;;;-2.80;99.90;;;;;;5110074;28;20221;-66
2024/01/09 02:24:56;;;;;;;16.75;15.95;;;-2.70;99.90;;;;;;5112563;28;20293;-66
2024/01/09 02:27:31;;;;;;;17.95;17.05;;;-2.70;99.90;;;;;;5105983;28;20202;-66
2024/01/09 02:29:59;;;;;;;16.58;15.77;;;-2.80;99.90;;;;;;5109839;28;20607;-66
2024/01/09 02:32:26;;;;;;;16.65;15.85;;;-2.80;99.90;;;;;;5107327;28;20312;-65
2024/01/09 02:34:54;;;;;;;16.67;15.88;;;-2.80;99.90;;;;;;5112266;28;20576;-64
2024/01/09 02:37:20;;;;;;;17.35;16.40;;;-2.80;99.90;;;;;;5117745;28;20206;-66
2024/01/09 02:39:47;;;;;;;16.55;15.73;;;-2.80;99.90;;;;;;5116780;28;20210;-65
2024/01/09 02:42:14;;;;;;;15.80;15.13;;;-2.70;99.90;;;;;;5120230;28;20517;-65
2024/01/09 02:44:40;;;;;;;16.65;15.80;;;-2.60;99.90;;;;;;5122300;28;20211;-65
2024/01/09 02:47:09;;;;;;;17.80;16.92;;;-2.60;99.90;;;;;;5118056;28;20202;-65
2024/01/09 02:49:36;;;;;;;17.92;17.02;;;-2.70;99.90;;;;;;5124809;28;20226;-65
2024/01/09 02:52:03;;;;;;;17.80;16.90;;;-2.80;99.90;;;;;;5120583;28;20549;-65
2024/01/09 02:54:30;;;;;;;17.08;16.27;;;-2.90;99.90;;;;;;5111742;28;20213;-64
2024/01/09 02:56:57;;;;;;;17.20;16.40;;;-2.90;99.90;;;;;;5109826;28;20206;-64
2024/01/09 02:59:26;;;;;;;17.08;16.27;;;-2.80;99.90;;;;;;5111426;28;20209;-66
2024/01/09 03:01:52;;;;;;;16.55;15.75;;;-2.70;99.90;;;;;;5111293;28;20201;-64
2024/01/09 03:04:20;;;;;;;17.52;16.73;;;-2.70;99.90;;;;;;5110650;28;20583;-65
2024/01/09 03:06:47;;;;;;;17.13;16.33;;;-2.70;99.90;;;;;;5107595;28;20879;-66
2024/01/09 03:09:14;;;;;;;17.83;16.85;;;-2.80;99.90;;;;;;5105278;28;20278;-64
2024/01/09 03:11:40;;;;;;;16.25;15.45;;;-2.80;99.90;;;;;;5110885;28;20201;-65
2024/01/09 03:14:07;;;;;;;15.48;14.77;;;-2.90;99.90;;;;;;5116551;28;20222;-65
2024/01/09 03:16:34;;;;;;;16.80;15.98;;;-2.90;99.90;;;;;;5118351;28;20213;-66
2024/01/09 03:19:00;;;;;;;15.40;14.70;;;-3.00;99.90;;;;;;5117977;28;20466;-66
2024/01/09 03:21:29;;;;;;;16.13;15.32;;;-3.10;99.90;;;;;;5110175;28;20207;-66
2024/01/09 03:23:55;;;;;;;16.27;15.48;;;-3.10;99.90;;;;;;5110859;28;20226;-65
2024/01/09 03:26:22;;;;;;;16.67;15.88;;;-3.10;99.90;;;;;;5110235;28;20291;-65
2024/01/09 03:28:49;;;;;;;15.75;15.05;;;-3.10;99.90;;;;;;5110791;28;20417;-65
2024/01/09 03:31:22;;;;;;;16.75;15.90;;;-3.00;99.90;;;;;;5110399;28;20202;-65
2024/01/09 03:33:49;;;;;;;16.88;16.02;;;-3.00;99.90;;;;;;5110506;28;20236;-65
2024/01/09 03:36:16;;;;;;;16.35;15.55;;;-3.00;99.90;;;;;;5109835;28;20205;-65
2024/01/09 03:38:45;;;;;;;16.17;15.38;;;-3.10;99.90;;;;;;5110407;28;20212;-64
2024/01/09 03:41:13;;;;;;;16.33;15.43;;;-3.10;99.90;;;;;;5110044;28;20201;-64
2024/01/09 03:43:39;;;;;;;15.73;14.93;;;-3.20;99.90;;;;;;5110518;28;20222;-66
2024/01/09 03:46:06;;;;;;;14.98;14.27;;;-3.20;99.90;;;;;;5110094;28;20210;-65
2024/01/09 03:48:33;;;;;;;16.05;15.23;;;-3.20;99.90;;;;;;5110014;28;20210;-66
2024/01/09 03:50:59;;;;;;;15.63;14.77;;;-3.20;99.90;;;;;;5107383;28;20210;-65
2024/01/09 03:53:26;;;;;;;15.30;14.50;;;-3.20;99.90;;;;;;5108581;28;20222;-66
2024/01/09 03:55:54;;;;;;;17.85;16.65;;;-3.20;99.90;;;;;;5109544;28;20217;-65
2024/01/09 03:58:21;;;;;;;15.75;14.95;;;-3.20;99.90;;;;;;5109066;28;20206;-66
2024/01/09 04:00:48;;;;;;;15.35;14.55;;;-3.30;99.90;;;;;;5105024;28;20673;-65
2024/01/09 04:03:15;;;;;;;15.52;14.70;;;-3.40;99.90;;;;;;5108637;28;20226;-64
2024/01/09 04:05:42;;;;;;;14.48;13.77;;;-3.30;99.90;;;;;;5109431;28;20206;-65
2024/01/09 04:08:09;;;;;;;15.18;14.43;;;-3.30;99.90;;;;;;5109056;28;20206;-66
2024/01/09 04:10:36;;;;;;;14.73;13.93;;;-3.30;99.90;;;;;;5109894;28;20317;-64
2024/01/09 04:13:04;;;;;;;15.02;14.32;;;-3.40;99.90;;;;;;5110179;28;20601;-65
2024/01/09 04:15:32;;;;;;;14.32;13.50;;;-3.40;99.90;;;;;;5110462;28;20218;-65
2024/01/09 04:17:58;;;;;;;14.45;13.75;;;-3.40;99.90;;;;;;5128326;28;20254;-67
2024/01/09 04:20:25;;;;;;;14.15;13.38;;;-3.30;99.90;;;;;;5133218;27;20205;-65
2024/01/09 04:22:52;;;;;;;14.68;13.98;;;-3.30;99.90;;;;;;5130637;27;20217;-65
2024/01/09 04:25:19;;;;;;;14.77;13.98;;;-3.30;99.90;;;;;;5128130;27;20291;-65
2024/01/09 04:27:46;;;;;;;14.40;13.70;;;-3.30;99.90;;;;;;5126521;28;20543;-65
2024/01/09 04:30:14;;;;;;;14.80;14.00;;;-3.20;99.90;;;;;;5127322;27;20236;-65
2024/01/09 04:32:41;;;;;;;15.38;14.57;;;-3.20;99.90;;;;;;5130138;27;20237;-65
2024/01/09 04:35:08;;;;;;;15.80;15.00;;;-3.20;99.90;;;;;;5126140;27;20201;-65
2024/01/09 04:37:34;;;;;;;15.40;14.65;;;-3.30;99.90;;;;;;5126485;27;20213;-65
2024/01/09 04:40:01;;;;;;;15.65;14.85;;;-3.30;99.90;;;;;;5127975;27;20206;-65
2024/01/09 04:42:28;;;;;;;15.32;14.52;;;-3.20;99.90;;;;;;5127826;27;20696;-66
2024/01/09 04:44:55;;;;;;;14.90;14.13;;;-3.20;99.90;;;;;;5127311;27;20216;-66
2024/01/09 04:47:23;;;;;;;16.15;15.25;;;-3.20;99.90;;;;;;5124909;27;20578;-66
2024/01/09 04:49:49;;;;;;;15.52;14.75;;;-3.20;99.90;;;;;;5130283;27;20221;-65
2024/01/09 04:52:16;;;;;;;14.88;14.13;;;-3.20;99.90;;;;;;5129829;27;20225;-65
2024/01/09 04:54:43;;;;;;;14.98;14.25;;;-3.20;99.90;;;;;;5124359;27;20204;-65
2024/01/09 04:57:10;;;;;;;16.23;15.30;;;-3.30;99.90;;;;;;5130606;27;20207;-64
2024/01/09 04:59:36;;;;;;;15.52;14.73;;;-3.40;99.90;;;;;;5128336;27;20202;-64
2024/01/09 05:02:03;;;;;;;15.52;14.73;;;-3.30;99.90;;;;;;5128502;27;20769;-66
2024/01/09 05:04:31;;;;;;;14.10;13.40;;;-3.30;99.90;;;;;;5125122;27;20669;-66
2024/01/09 05:06:58;;;;;;;14.75;13.95;;;-3.30;99.90;;;;;;5127887;27;20201;-66
2024/01/09 05:09:25;;;;;;;15.85;15.07;;;-3.30;99.90;;;;;;5137915;27;20227;-64
2024/01/09 05:11:52;;;;;;;14.85;14.10;;;-3.20;99.90;;;;;;5141834;27;20212;-65
2024/01/09 05:14:18;;;;;;;15.73;14.93;;;-3.30;99.90;;;;;;5134767;27;20224;-65
2024/01/09 05:16:45;;;;;;;15.15;14.35;;;-3.40;99.90;;;;;;5131110;27;20212;-65
2024/01/09 05:19:12;;;;;;;16.40;15.45;;;-3.40;99.90;;;;;;5139460;27;20199;-65
2024/01/09 05:21:40;;;;;;;15.35;14.55;;;-3.30;99.90;;;;;;5138578;27;20201;-66
2024/01/09 05:24:07;;;;;;;14.73;14.02;;;-3.40;99.90;;;;;;5127917;27;20623;-64
2024/01/09 05:26:33;;;;;;;15.80;15.00;;;-3.30;99.90;;;;;;5129491;27;20206;-66
2024/01/09 05:29:00;;;;;;;15.80;15.00;;;-3.30;99.90;;;;;;5130119;27;20197;-66
2024/01/09 05:31:27;;;;;;;16.85;15.95;;;-3.30;99.90;;;;;;5132010;27;20686;-65
2024/01/09 05:33:54;;;;;;;16.23;15.40;;;-3.30;99.90;;;;;;5130917;27;20229;-66
2024/01/09 05:36:22;;;;;;;16.65;15.73;;;-3.30;99.90;;;;;;5126615;27;20304;-65
2024/01/09 05:38:51;;;;;;;15.60;14.80;;;-3.30;99.90;;;;;;5130044;27;20384;-65
2024/01/09 05:41:21;;;;;;;16.10;15.25;;;-3.30;99.90;;;;;;5129660;27;20212;-64
2024/01/09 05:43:49;;;;;;;15.25;14.45;;;-3.40;99.90;;;;;;5129664;27;20300;-65
2024/01/09 05:46:15;;;;;;;14.73;13.82;;;-3.40;99.90;;;;;;5126274;27;20205;-65
2024/01/09 05:48:43;;;;;;;14.70;13.98;;;-3.40;99.90;;;;;;5130954;27;20205;-65
2024/01/09 05:51:10;;;;;;;15.20;14.40;;;-3.40;99.90;;;;;;5129909;27;20213;-65
2024/01/09 05:53:37;;;;;;;15.15;14.35;;;-3.40;99.90;;;;;;5126028;27;20218;-65
2024/01/09 05:56:07;;;;;;;17.00;15.85;;;-3.30;99.90;;;;;;5125531;27;20198;-65
2024/01/09 05:58:34;;;;;;;15.18;14.35;;;-3.40;99.90;;;;;;5126207;27;20556;-65
2024/01/09 06:01:01;;;;;;;15.13;14.32;;;-3.30;99.90;;;;;;5129297;27;20201;-65
2024/01/09 06:03:27;;;;;;;15.52;14.73;;;-3.30;99.90;;;;;;5127382;27;20217;-65
2024/01/09 06:05:55;;;;;;;18.27;16.98;;;-3.20;99.90;;;;;;5124573;27;20197;-65
2024/01/09 06:08:22;;;;;;;16.00;15.20;;;-3.30;99.90;;;;;;5120363;27;20205;-63
2024/01/09 06:10:49;;;;;;;14.88;14.18;;;-3.40;99.90;;;;;;5117712;27;20221;-64
2024/01/09 06:13:17;;;;;;;16.27;15.38;;;-3.40;99.90;;;;;;5121995;27;20637;-63
2024/01/09 06:15:44;;;;;;;14.60;13.80;;;-3.40;99.90;;;;;;5119729;27;20206;-65
2024/01/09 06:18:11;;;;;;;15.63;14.80;;;-3.30;99.90;;;;;;5121406;27;20297;-64
2024/01/09 06:20:37;;;;;;;18.67;17.58;;;-3.30;99.90;;;;;;5118346;27;20201;-65
2024/01/09 06:23:04;;;;;;;15.02;14.23;;;-3.30;99.90;;;;;;5115739;27;20249;-64
2024/01/09 06:25:31;;;;;;;16.33;15.32;;;-3.40;99.90;;;;;;5121528;27;20204;-65
2024/01/09 06:27:58;;;;;;;15.98;15.10;;;-3.40;99.90;;;;;;5113399;27;20578;-64
2024/01/09 06:30:26;;;;;;;15.48;14.70;;;-3.30;99.90;;;;;;5119337;27;20232;-64
2024/01/09 06:32:53;;;;;;;15.10;14.30;;;-3.30;99.90;;;;;;5116218;27;20230;-64
2024/01/09 06:35:19;;;;;;;17.27;16.42;;;-3.30;99.90;;;;;;5118217;27;20206;-65
2024/01/09 06:37:46;;;;;;;15.73;14.93;;;-3.30;99.90;;;;;;5115326;27;20199;-65
2024/01/09 06:40:13;;;;;;;15.55;14.75;;;-3.30;99.90;;;;;;5114575;27;20707;-65
2024/01/09 06:42:40;;;;;;;15.27;14.48;;;-3.40;99.90;;;;;;5116944;27;20230;-64
2024/01/09 06:45:07;;;;;;;14.32;13.57;;;-3.50;99.90;;;;;;5117796;27;20202;-64
2024/01/09 06:47:36;;;;;;;14.00;13.27;;;-3.50;99.90;;;;;;5120279;27;20311;-65
2024/01/09 06:50:04;;;;;;;13.57;12.88;;;-3.50;99.90;;;;;;5114187;28;20252;-64
2024/01/09 06:52:31;;;;;;;14.43;13.63;;;-3.50;99.90;;;;;;5118111;27;20225;-64
2024/01/09 06:54:58;;;;;;;14.52;13.80;;;-3.40;99.90;;;;;;5127658;27;20256;-65
2024/01/09 06:57:25;;;;;;;14.00;13.30;;;-3.50;99.90;;;;;;5129118;27;20201;-63
2024/01/09 06:59:52;;;;;;;14.40;13.70;;;-3.50;99.90;;;;;;5116825;27;20198;-64
2024/01/09 07:02:20;;;;;;;14.48;13.68;;;-3.40;99.90;;;;;;5111908;27;20234;-63
2024/01/09 07:04:48;;;;;;;14.80;14.00;;;-3.40;99.90;;;;;;5116869;27;20265;-63
2024/01/09 07:07:15;;;;;;;15.35;14.50;;;-3.30;99.90;;;;;;5128179;27;20240;-65
2024/01/09 07:09:42;;;;;;;15.25;14.35;;;-3.30;99.90;;;;;;5123536;27;20212;-64
2024/01/09 07:12:09;;;;;;;14.73;13.93;;;-3.50;99.90;;;;;;5125905;27;20210;-66
2024/01/09 07:14:36;;;;;;;13.85;13.05;;;-3.60;99.90;;;;;;5111677;27;20710;-64
2024/01/09 07:17:03;;;;;;;14.60;13.80;;;-3.70;99.90;;;;;;5113712;27;20205;-66
2024/01/09 07:19:30;;;;;;;13.80;13.10;;;-3.50;99.90;;;;;;5113246;27;20220;-65
2024/01/09 07:21:58;;;;;;;14.20;13.40;;;-3.70;99.90;;;;;;5113903;28;20571;-65
2024/01/09 07:24:25;;;;;;;13.98;13.30;;;-3.70;99.90;;;;;;5115979;28;20215;-65
2024/01/09 07:26:51;;;;;;;13.65;12.85;;;-3.70;99.90;;;;;;5114165;28;20206;-66
2024/01/09 07:29:19;;;;;;;14.20;13.40;;;-3.70;99.90;;;;;;5112467;28;20690;-65
2024/01/09 07:31:47;;;;;;;13.27;12.57;;;-3.50;99.90;;;;;;5117971;28;20311;-64
2024/01/09 07:34:13;;;;;;;13.90;13.18;;;-3.50;99.90;;;;;;5115424;28;20303;-64
2024/01/09 07:36:42;;;;;;;13.07;12.40;;;-3.50;99.90;;;;;;5107854;28;20213;-65
2024/01/09 07:39:12;;;;;;;13.02;12.35;;;-3.60;99.90;;;;;;5117577;28;20210;-66
2024/01/09 07:41:39;;;;;;;13.55;12.85;;;-3.70;99.90;;;;;;5114197;28;20250;-64
2024/01/09 07:44:06;;;;;;;13.55;12.85;;;-3.70;99.90;;;;;;5111552;28;20221;-64
2024/01/09 07:46:33;;;;;;;13.35;12.63;;;-3.70;99.90;;;;;;5116945;28;20607;-63
2024/01/09 07:49:00;;;;;;;13.60;12.90;;;-3.60;99.90;;;;;;5114704;28;20206;-63
2024/01/09 07:51:27;;;;;;;14.02;13.23;;;-3.50;99.90;;;;;;5121859;28;20224;-64
2024/01/09 07:53:54;;;;;;;13.98;13.18;;;-3.40;99.90;;;;;;5107773;28;20222;-65
2024/01/09 07:56:22;;;;;;;14.05;13.27;;;-3.40;99.90;;;;;;5118453;28;20280;-64
2024/01/09 07:58:49;;;;;;;13.13;12.52;;;-3.30;99.90;;;;;;5113590;28;20217;-63
2024/01/09 08:01:16;;;;;;;12.88;12.27;;;-3.30;99.90;;;;;;5115081;28;20220;-64
2024/01/09 08:03:43;;;;;;;13.95;13.25;;;-3.30;99.90;;;;;;5109675;28;20228;-64
2024/01/09 08:06:14;;;;;;;14.07;13.27;;;-3.30;99.90;;;;;;5117446;27;20208;-65
2024/01/09 08:08:41;;;;;;;13.95;13.15;;;-3.30;99.90;;;;;;5111130;28;20253;-64
2024/01/09 08:11:08;;;;;;;13.50;12.77;;;-3.20;99.90;;;;;;5114696;28;20230;-65
2024/01/09 08:13:36;;;;;;;15.32;14.43;;;-3.20;99.90;;;;;;5110876;27;20232;-63
2024/01/09 08:16:04;;;;;;;14.80;13.90;;;-3.20;99.90;;;;;;5115019;27;20229;-64
2024/01/09 08:18:32;;;;;;;14.20;13.50;;;-3.30;99.90;;;;;;5114949;27;20220;-64
2024/01/09 08:20:59;;;;;;;13.52;12.82;;;-3.30;99.90;;;;;;5113524;27;20214;-65
2024/01/09 08:23:26;;;;;;;13.98;13.27;;;-3.30;99.90;;;;;;5114458;27;20222;-63
2024/01/09 08:25:52;;;;;;;16.33;15.43;;;-3.20;99.90;;;;;;5125937;27;20573;-65
2024/01/09 08:28:19;;;;;;;13.52;12.82;;;-3.20;99.90;;;;;;5112120;27;20621;-65
2024/01/09 08:30:47;;;;;;;13.90;13.20;;;-3.20;99.90;;;;;;5118891;27;20659;-63
2024/01/09 08:33:14;;;;;;;14.90;14.10;;;-3.10;99.90;;;;;;5113299;27;20226;-63
2024/01/09 08:35:43;;;;;;;15.98;15.18;;;-3.00;99.90;;;;;;5111840;28;20232;-64
2024/01/09 08:38:10;;;;;;;15.63;14.82;;;-3.00;99.90;;;;;;5118841;27;20202;-64
2024/01/09 08:40:37;;;;;;;15.85;15.10;;;-2.90;99.90;;;;;;5117234;27;20198;-65
2024/01/09 08:43:04;;;;;;;17.85;17.05;;;-2.80;99.90;;;;;;5117042;27;20224;-64
2024/01/09 08:45:31;;;;;;;18.55;17.70;;;-2.80;99.90;;;;;;5117319;27;20206;-64
2024/01/09 08:47:59;;;;;;;18.88;17.98;;;-2.90;99.90;;;;;;5116392;27;20210;-64
2024/01/09 08:50:25;;;;;;;17.15;16.40;;;-2.90;99.90;;;;;;5116365;27;20231;-63
2024/01/09 08:52:54;;;;;;;16.92;16.13;;;-2.90;99.90;;;;;;5124063;27;20218;-65
2024/01/09 08:55:21;;;;;;;17.23;16.42;;;-2.90;99.90;;;;;;5130549;27;20292;-64
2024/01/09 08:57:48;;;;;;;16.70;15.90;;;-2.70;99.90;;;;;;5124394;27;20229;-65
2024/01/09 09:00:16;;;;;;;17.58;16.77;;;-2.70;99.90;;;;;;5122223;27;20209;-64
2024/01/09 09:02:43;;;;;;;17.13;16.33;;;-2.60;99.90;;;;;;5113524;27;20221;-63
2024/01/09 09:05:12;;;;;;;17.90;17.10;;;-2.60;99.90;;;;;;5120093;27;20209;-64
2024/01/09 09:07:38;;;;;;;18.40;17.52;;;-2.50;99.90;;;;;;5123438;27;20616;-64
2024/01/09 09:10:06;;;;;;;18.65;17.85;;;-2.40;99.90;;;;;;5123624;27;20202;-64
2024/01/09 09:12:33;;;;;;;18.88;17.98;;;-2.40;99.90;;;;;;5123403;27;20286;-64
2024/01/09 09:15:01;;;;;;;18.20;17.40;;;-2.20;99.90;;;;;;5124922;27;20224;-64
2024/01/09 09:17:27;;;;;;;18.35;17.52;;;-2.20;99.90;;;;;;5127927;27;20272;-64
2024/01/09 09:19:53;;;;;;;18.50;17.70;;;-2.30;99.90;;;;;;5116930;28;20298;-64
2024/01/09 09:22:23;;;;;;;16.52;15.82;;;-2.20;99.90;;;;;;5121382;27;20252;-65
2024/01/09 09:24:50;;;;;;;15.98;15.18;;;-2.10;99.90;;;;;;5122741;27;20216;-64
2024/01/09 09:27:17;;;;;;;17.58;16.67;;;-2.20;99.90;;;;;;5128304;27;20221;-64
2024/01/09 09:29:43;;;;;;;16.90;16.10;;;-2.30;99.90;;;;;;5130099;27;20273;-64
2024/01/09 09:32:11;;;;;;;16.35;15.55;;;-2.10;99.90;;;;;;5133946;27;20233;-65
2024/01/09 09:34:40;;;;;;;15.55;14.85;;;-2.00;99.90;;;;;;5131462;27;20212;-64
2024/01/09 09:37:06;;;;;;;14.98;14.27;;;-1.90;99.90;;;;;;5127522;27;20210;-64
2024/01/09 09:39:35;;;;;;;15.75;14.95;;;-1.80;99.90;;;;;;5116958;28;20206;-64
2024/01/09 09:42:02;;;;;;;14.55;13.77;;;-1.80;99.90;;;;;;5117206;28;20588;-63
2024/01/09 09:44:28;;;;;;;14.07;13.38;;;-1.80;99.90;;;;;;5123893;27;20202;-65
2024/01/09 09:46:55;;;;;;;14.65;13.90;;;-1.60;99.90;;;;;;5128980;27;20197;-65
2024/01/09 09:49:23;;;;;;;14.13;13.35;;;-1.60;99.90;;;;;;5120972;28;20205;-63
2024/01/09 09:51:51;;;;;;;14.13;13.43;;;-1.70;99.90;;;;;;5131506;27;20222;-64
2024/01/09 09:54:22;;;;;;;13.60;13.00;;;-1.70;99.90;;;;;;5139944;27;20202;-64
2024/01/09 09:56:50;;;;;;;14.27;13.57;;;-1.90;99.90;;;;;;5136933;27;20258;-65
2024/01/09 09:59:17;;;;;;;14.88;14.13;;;-1.80;99.90;;;;;;5125703;28;20209;-64
2024/01/09 10:01:45;;;;;;;14.20;13.50;;;-1.70;99.90;;;;;;5126193;27;20206;-64
2024/01/09 10:04:30;;;;;;;15.05;14.25;;;-1.60;99.90;;;;;;5135058;27;20257;-64
2024/01/09 10:06:58;;;;;;;15.52;14.63;;;-1.70;99.90;;;;;;5131867;27;20206;-63
2024/01/09 10:09:31;;;;;;;15.25;14.40;;;-1.70;99.90;;;;;;5127946;28;20202;-65
2024/01/09 10:11:59;;;;;;;17.42;16.25;;;-1.50;99.90;;;;;;5123355;27;20681;-64
2024/01/09 10:14:26;;;;;;;17.00;15.95;;;-1.50;99.90;;;;;;5114341;27;20197;-65
2024/01/09 10:16:54;;;;;;;15.45;14.52;;;-1.60;99.90;;;;;;5113561;27;20700;-63
2024/01/09 10:19:22;;;;;;;13.77;13.07;;;-1.60;99.90;;;;;;5117306;27;20591;-64
2024/01/09 10:21:49;;;;;;;14.48;13.68;;;-1.50;99.90;;;;;;5111514;28;20210;-64
2024/01/09 10:24:16;;;;;;;14.93;14.13;;;-1.40;99.90;;;;;;5114847;27;20283;-64
2024/01/09 10:26:43;;;;;;;14.68;13.90;;;-1.40;99.90;;;;;;5116490;27;20202;-64
2024/01/09 10:29:12;;;;;;;13.40;12.80;;;-1.30;99.90;;;;;;5115473;27;20198;-64
2024/01/09 10:31:39;;;;;;;13.85;13.15;;;-1.40;99.90;;;;;;5114961;28;20226;-64
2024/01/09 10:34:06;;;;;;;14.05;13.35;;;-1.40;99.90;;;;;;5122813;27;20217;-63
2024/01/09 10:36:33;;;;;;;12.95;12.35;;;-1.40;99.90;;;;;;5122927;28;20209;-63
2024/01/09 10:39:04;;;;;;;13.90;13.20;;;-1.30;99.90;;;;;;5121980;27;20225;-65
2024/01/09 10:41:33;;;;;;;14.48;13.77;;;-1.20;99.90;;;;;;5118023;27;20204;-65
2024/01/09 10:44:01;;;;;;;13.90;13.20;;;-1.30;99.90;;;;;;5116847;27;20232;-63
2024/01/09 10:46:29;;;;;;;14.10;13.38;;;-1.30;99.90;;;;;;5117630;27;20206;-64
2024/01/09 10:48:57;;;;;;;14.00;13.30;;;-1.30;99.90;;;;;;5114811;27;20227;-65
2024/01/09 10:51:25;;;;;;;13.27;12.68;;;-1.30;99.90;;;;;;5114451;27;20310;-64
2024/01/09 10:53:52;;;;;;;14.10;13.40;;;-1.20;99.90;;;;;;5115401;27;20229;-64
2024/01/09 10:56:21;;;;;;;13.80;13.10;;;-1.20;99.90;;;;;;5120584;27;20205;-65
2024/01/09 10:58:48;;;;;;;14.32;13.63;;;-1.20;99.90;;;;;;5118864;27;20202;-64
2024/01/09 11:01:16;;;;;;;14.90;14.10;;;-1.00;99.90;;;;;;5116263;27;20198;-64
2024/01/09 11:03:44;;;;;;;13.55;12.95;;;-1.00;99.90;;;;;;5115191;27;20256;-64
2024/01/09 11:06:12;;;;;;;13.52;12.93;;;-1.00;99.90;;;;;;5112840;28;20216;-63
2024/01/09 11:08:43;;;;;;;14.20;13.50;;;-1.00;99.90;;;;;;5114275;27;20212;-65
2024/01/09 11:11:13;;;;;;;13.65;13.05;;;-1.00;99.90;;;;;;5114746;27;20365;-65
2024/01/09 11:13:43;;;;;;;13.98;13.27;;;-0.80;99.90;;;;;;5115950;27;20240;-64
2024/01/09 11:16:11;;;;;;;14.07;13.40;;;-0.80;99.90;;;;;;5116318;27;20715;-64
2024/01/09 11:18:40;;;;;;;14.43;13.73;;;-0.70;99.90;;;;;;5120080;27;20220;-65
2024/01/09 11:21:09;;;;;;;14.35;13.65;;;-0.80;99.90;;;;;;5117990;27;20194;-65
2024/01/09 11:24:00;;;;;;;15.05;14.35;;;-0.80;99.90;;;;;;5114965;28;20233;-64
2024/01/09 11:26:30;;;;;;;13.00;12.40;;;-0.70;99.90;;;;;;5115816;28;20212;-64
2024/01/09 11:28:58;;;;;;;15.88;15.00;;;-0.30;99.90;;;;;;5111821;28;20209;-64
2024/01/09 11:31:27;;;;;;;14.75;14.05;;;-0.30;99.90;;;;;;5107715;28;20222;-65
2024/01/09 11:33:56;;;;;;;15.27;14.57;;;-0.50;99.90;;;;;;5107773;28;20712;-64
2024/01/09 11:36:29;;;;;;;14.73;14.02;;;-0.30;99.90;;;;;;5120025;28;20224;-64
2024/01/09 11:38:56;;;;;;;15.15;14.45;;;-0.30;99.90;;;;;;5114509;27;20661;-63
2024/01/09 11:41:24;;;;;;;14.80;14.10;;;-0.40;99.90;;;;;;5127265;27;20205;-64
2024/01/09 11:43:58;;;;;;;13.85;13.25;;;-0.50;99.90;;;;;;5116974;27;20648;-65
2024/01/09 11:46:26;;;;;;;15.18;14.43;;;-0.70;99.90;;;;;;5115056;28;20553;-65
2024/01/09 11:48:53;;;;;;;14.25;13.57;;;-0.60;99.90;;;;;;5113652;27;20284;-65
2024/01/09 11:51:21;;;;;;;14.57;13.88;;;-0.50;99.90;;;;;;5116891;27;20263;-65
2024/01/09 11:53:50;;;;;;;14.90;14.20;;;-0.40;99.90;;;;;;5116130;27;20232;-64
2024/01/09 11:56:17;;;;;;;15.00;14.30;;;-0.40;99.90;;;;;;5127564;27;20202;-65
2024/01/09 11:58:44;;;;;;;15.38;14.57;;;-0.30;99.90;;;;;;5121049;27;20202;-64
2024/01/09 12:01:11;;;;;;;14.75;14.05;;;-0.20;99.90;;;;;;5126369;27;20206;-64
2024/01/09 12:03:38;;;;;;;15.75;14.98;;;-0.20;99.90;;;;;;5134516;27;20225;-64
2024/01/09 12:06:06;;;;;;;17.40;16.43;;;-0.10;99.90;;;;;;5127084;27;20208;-63
2024/01/09 12:08:33;;;;;;;15.88;15.18;;;-0.10;99.90;;;;;;5131157;27;20197;-64
2024/01/09 12:11:02;;;;;;;18.67;17.77;;;-0.20;99.90;;;;;;5128108;27;20418;-64
2024/01/09 12:13:29;;;;;;;17.40;16.65;;;-0.20;99.90;;;;;;5128076;27;20221;-64
2024/01/09 12:15:56;;;;;;;19.17;18.27;;;-0.20;99.90;;;;;;5122953;27;20659;-64
2024/01/09 12:18:23;;;;;;;19.02;18.15;;;0.00;99.90;;;;;;5120256;27;20214;-64
2024/01/09 12:20:50;;;;;;;20.17;19.27;;;0.10;99.90;;;;;;5119370;27;20213;-64
2024/01/09 12:23:19;;;;;;;20.85;19.88;;;0.00;99.90;;;;;;5118008;27;20225;-64
2024/01/09 12:25:48;;;;;;;20.67;19.77;;;0.00;99.90;;;;;;5118501;27;20229;-63
2024/01/09 12:28:16;;;;;;;19.15;18.33;;;0.10;99.90;;;;;;5116023;27;20271;-64